createdAt,value
2022-09-05T00:10:18.798Z,100.00
2022-09-05T00:24:21.888Z,100.00
2022-09-05T00:31:53.610Z,100.00
2022-09-05T00:42:01.203Z,100.00
2022-09-05T00:52:20.704Z,100.00
2022-09-05T01:02:32.099Z,100.00
2022-09-05T01:13:02.389Z,100.00
2022-09-05T01:23:29.072Z,100.00
2022-09-05T01:33:55.295Z,100.00
2022-09-05T01:44:02.854Z,100.00
2022-09-05T01:54:24.926Z,100.00
2022-09-05T02:04:49.286Z,100.00
2022-09-05T02:14:57.171Z,100.00
2022-09-05T02:26:00.276Z,100.00
2022-09-05T02:35:52.625Z,100.00
2022-09-05T02:46:03.591Z,100.00
2022-09-05T02:57:33.109Z,100.00
2022-09-05T03:07:32.126Z,100.00
2022-09-05T03:17:51.814Z,100.00
2022-09-05T03:28:32.840Z,100.00
2022-09-05T03:38:34.683Z,100.00
2022-09-05T03:48:52.937Z,100.00
2022-09-05T03:59:07.663Z,100.00
2022-09-05T04:09:22.687Z,100.00
2022-09-05T04:20:18.362Z,100.00
2022-09-05T04:30:39.330Z,100.00
2022-09-05T04:41:03.726Z,100.00
2022-09-05T04:51:22.165Z,100.00
2022-09-05T05:06:02.071Z,100.00
2022-09-05T05:18:00.977Z,100.00
2022-09-05T05:22:20.215Z,100.00
2022-09-05T05:32:45.489Z,100.00
2022-09-05T05:42:48.550Z,100.00
2022-09-05T05:53:36.311Z,100.00
2022-09-05T06:04:27.513Z,100.00
2022-09-05T06:15:10.243Z,100.00
2022-09-05T06:25:42.881Z,100.00
2022-09-05T06:35:59.014Z,100.00
2022-09-05T06:46:16.491Z,100.00
2022-09-05T06:56:37.965Z,100.00
2022-09-05T07:07:12.042Z,100.00
2022-09-05T07:18:06.281Z,100.00
2022-09-05T07:28:29.310Z,100.00
2022-09-05T07:38:52.200Z,93.26
2022-09-05T07:49:08.021Z,87.10
2022-09-05T07:59:12.557Z,87.74
2022-09-05T08:10:06.442Z,76.97
2022-09-05T08:19:52.382Z,69.85
2022-09-05T08:30:26.283Z,59.83
2022-09-05T08:41:04.189Z,57.61
2022-09-05T08:51:24.794Z,53.58
2022-09-05T09:01:29.469Z,50.90
2022-09-05T09:11:54.959Z,46.65
2022-09-05T09:22:16.389Z,44.73
2022-09-05T09:32:24.553Z,43.87
2022-09-05T09:43:06.355Z,40.60
2022-09-05T09:53:15.916Z,39.13
2022-09-05T10:10:00.945Z,41.91
2022-09-05T10:14:49.620Z,37.89
2022-09-05T10:25:11.285Z,33.55
2022-09-05T10:35:29.476Z,32.78
2022-09-05T10:45:56.070Z,30.18
2022-09-05T10:56:20.761Z,27.42
2022-09-05T11:07:02.466Z,25.00
2022-09-05T11:17:22.993Z,22.83
2022-09-05T11:27:44.419Z,25.28
2022-09-05T11:40:24.955Z,19.85
2022-09-05T11:49:16.108Z,20.60
2022-09-05T11:59:33.580Z,18.75
2022-09-05T12:09:50.312Z,19.27
2022-09-05T12:20:25.142Z,20.62
2022-09-05T12:30:36.397Z,22.04
2022-09-05T12:41:43.358Z,28.77
2022-09-05T12:51:47.690Z,30.08
2022-09-05T13:03:13.413Z,29.18
2022-09-05T13:14:56.582Z,16.84
2022-09-05T13:23:48.677Z,15.90
2022-09-05T13:38:29.126Z,17.27
2022-09-05T13:44:27.442Z,16.13
2022-09-05T13:54:50.281Z,15.11
2022-09-05T14:05:19.543Z,17.58
2022-09-05T14:15:24.930Z,19.46
2022-09-05T14:25:53.139Z,20.72
2022-09-05T14:37:42.765Z,21.08
2022-09-05T14:47:35.545Z,21.96
2022-09-05T15:02:42.006Z,19.48
2022-09-05T15:08:53.781Z,20.09
2022-09-05T15:18:48.483Z,18.50
2022-09-05T15:29:12.919Z,22.49
2022-09-05T15:39:33.574Z,21.02
2022-09-05T15:49:43.070Z,21.35
2022-09-05T15:59:58.896Z,26.83
2022-09-05T16:10:49.258Z,30.27
2022-09-05T16:23:34.075Z,30.40
2022-09-05T16:31:13.495Z,33.81
2022-09-05T16:41:53.036Z,38.32
2022-09-05T16:52:04.985Z,39.99
2022-09-05T17:02:17.742Z,43.79
2022-09-05T17:12:27.899Z,44.67
2022-09-05T17:28:44.450Z,47.77
2022-09-05T17:32:56.294Z,51.21
2022-09-05T17:43:07.084Z,55.17
2022-09-05T17:53:27.017Z,58.10
2022-09-05T18:03:41.455Z,61.23
2022-09-05T18:13:56.130Z,61.65
2022-09-05T18:24:07.983Z,64.84
2022-09-05T18:34:24.457Z,68.45
2022-09-05T18:44:59.681Z,72.90
2022-09-05T18:55:31.718Z,77.96
2022-09-05T19:05:47.513Z,81.74
2022-09-05T19:16:43.134Z,81.89
2022-09-05T19:26:37.260Z,87.31
2022-09-05T19:37:22.202Z,88.00
2022-09-05T19:48:03.895Z,89.61
2022-09-05T19:58:19.237Z,90.15
2022-09-05T20:08:30.359Z,91.08
2022-09-05T20:18:37.070Z,90.84
2022-09-05T20:28:41.301Z,89.05
2022-09-05T20:43:32.443Z,80.83
2022-09-05T20:54:19.913Z,77.14
2022-09-05T20:59:50.150Z,77.65
2022-09-05T21:10:07.697Z,75.72
2022-09-05T21:20:10.534Z,76.82
2022-09-05T21:30:27.136Z,78.57
2022-09-05T21:40:32.580Z,83.44
2022-09-05T21:50:37.761Z,86.64
2022-09-05T22:00:39.490Z,89.25
2022-09-05T22:10:51.493Z,90.39
2022-09-05T22:21:32.470Z,92.08
2022-09-05T22:31:17.905Z,94.12
2022-09-05T22:41:24.948Z,94.93
2022-09-05T22:51:34.938Z,95.79
2022-09-05T23:01:36.835Z,99.18
2022-09-05T23:11:39.586Z,100.00
2022-09-05T23:21:41.194Z,100.00
2022-09-05T23:31:47.239Z,99.34
2022-09-05T23:41:48.886Z,98.49
2022-09-05T23:51:52.662Z,97.66
